sensor_id;sensor_type;location;lat;lon;timestamp;pressure;altitude;pressure_sealevel;temperature;humidity
71567;BME280;59403;47.456;19.120;2023-09-07T00:01:29;100962.00;;;17.37;91.76
71567;BME280;59403;47.456;19.120;2023-09-07T00:03:56;100956.38;;;17.32;92.30
71567;BME280;59403;47.456;19.120;2023-09-07T00:06:23;100966.97;;;17.26;92.87
71567;BME280;59403;47.456;19.120;2023-09-07T00:08:52;100966.50;;;17.22;92.87
71567;BME280;59403;47.456;19.120;2023-09-07T00:11:19;100972.81;;;17.15;93.05
71567;BME280;59403;47.456;19.120;2023-09-07T00:13:45;100974.84;;;17.13;93.09
71567;BME280;59403;47.456;19.120;2023-09-07T00:16:12;100966.53;;;17.08;93.37
71567;BME280;59403;47.456;19.120;2023-09-07T00:18:39;100969.88;;;17.10;93.37
71567;BME280;59403;47.456;19.120;2023-09-07T00:21:06;100966.72;;;17.06;93.47
71567;BME280;59403;47.456;19.120;2023-09-07T00:23:34;100968.94;;;17.02;93.95
71567;BME280;59403;47.456;19.120;2023-09-07T00:26:02;100962.75;;;17.02;94.17
71567;BME280;59403;47.456;19.120;2023-09-07T00:28:29;100961.63;;;16.96;94.34
71567;BME280;59403;47.456;19.120;2023-09-07T00:30:56;100956.28;;;16.96;94.43
71567;BME280;59403;47.456;19.120;2023-09-07T00:33:22;100963.19;;;16.91;94.31
71567;BME280;59403;47.456;19.120;2023-09-07T00:35:49;100964.97;;;16.98;94.19
71567;BME280;59403;47.456;19.120;2023-09-07T00:38:16;100964.12;;;16.98;94.17
71567;BME280;59403;47.456;19.120;2023-09-07T00:40:43;100965.16;;;16.97;94.35
71567;BME280;59403;47.456;19.120;2023-09-07T00:43:12;100965.34;;;16.95;94.04
71567;BME280;59403;47.456;19.120;2023-09-07T00:45:39;100965.34;;;16.95;94.31
71567;BME280;59403;47.456;19.120;2023-09-07T00:48:06;100970.03;;;16.93;94.16
71567;BME280;59403;47.456;19.120;2023-09-07T00:50:34;100966.34;;;16.94;94.00
71567;BME280;59403;47.456;19.120;2023-09-07T00:53:01;100964.22;;;16.90;94.22
71567;BME280;59403;47.456;19.120;2023-09-07T00:55:28;100961.34;;;16.91;93.51
71567;BME280;59403;47.456;19.120;2023-09-07T00:57:58;100971.22;;;16.91;93.31
71567;BME280;59403;47.456;19.120;2023-09-07T01:00:27;100969.00;;;16.94;93.22
71567;BME280;59403;47.456;19.120;2023-09-07T01:05:37;100964.88;;;16.92;95.08
71567;BME280;59403;47.456;19.120;2023-09-07T01:08:14;100967.34;;;16.93;93.73
71567;BME280;59403;47.456;19.120;2023-09-07T01:10:42;100964.75;;;16.85;94.19
71567;BME280;59403;47.456;19.120;2023-09-07T01:13:09;100968.84;;;16.81;94.24
71567;BME280;59403;47.456;19.120;2023-09-07T01:15:38;100970.56;;;16.74;94.42
71567;BME280;59403;47.456;19.120;2023-09-07T01:18:05;100963.63;;;16.65;94.85
71567;BME280;59403;47.456;19.120;2023-09-07T01:20:34;100963.34;;;16.60;95.41
71567;BME280;59403;47.456;19.120;2023-09-07T01:23:03;100974.41;;;16.57;95.67
71567;BME280;59403;47.456;19.120;2023-09-07T01:25:31;100968.59;;;16.54;96.01
71567;BME280;59403;47.456;19.120;2023-09-07T01:27:58;100965.78;;;16.47;96.33
71567;BME280;59403;47.456;19.120;2023-09-07T01:30:27;100958.47;;;16.41;96.61
71567;BME280;59403;47.456;19.120;2023-09-07T01:32:53;100960.78;;;16.44;96.42
71567;BME280;59403;47.456;19.120;2023-09-07T01:35:21;100962.53;;;16.37;96.52
71567;BME280;59403;47.456;19.120;2023-09-07T01:37:48;100962.53;;;16.37;96.86
71567;BME280;59403;47.456;19.120;2023-09-07T01:40:17;100963.25;;;16.31;96.96
71567;BME280;59403;47.456;19.120;2023-09-07T01:42:43;100959.94;;;16.29;97.21
71567;BME280;59403;47.456;19.120;2023-09-07T01:45:10;100962.97;;;16.26;97.02
71567;BME280;59403;47.456;19.120;2023-09-07T01:47:37;100966.81;;;16.24;97.23
71567;BME280;59403;47.456;19.120;2023-09-07T01:50:04;100965.87;;;16.17;97.97
71567;BME280;59403;47.456;19.120;2023-09-07T01:52:31;100970.56;;;16.15;98.02
71567;BME280;59403;47.456;19.120;2023-09-07T01:54:58;100969.56;;;16.16;98.08
71567;BME280;59403;47.456;19.120;2023-09-07T01:57:26;100965.03;;;16.16;97.65
71567;BME280;59403;47.456;19.120;2023-09-07T01:59:53;100966.06;;;16.15;97.41
71567;BME280;59403;47.456;19.120;2023-09-07T02:02:20;100960.59;;;16.09;97.38
71567;BME280;59403;47.456;19.120;2023-09-07T02:04:47;100967.78;;;16.08;97.42
71567;BME280;59403;47.456;19.120;2023-09-07T02:07:14;100974.25;;;16.14;97.09
71567;BME280;59403;47.456;19.120;2023-09-07T02:09:41;100959.50;;;16.18;96.97
71567;BME280;59403;47.456;19.120;2023-09-07T02:12:08;100969.84;;;16.21;96.88
71567;BME280;59403;47.456;19.120;2023-09-07T02:14:37;100971.03;;;16.18;97.04
71567;BME280;59403;47.456;19.120;2023-09-07T02:17:04;100975.44;;;16.11;97.71
71567;BME280;59403;47.456;19.120;2023-09-07T02:19:31;100975.25;;;16.13;97.62
71567;BME280;59403;47.456;19.120;2023-09-07T02:21:58;100976.09;;;16.13;97.73
71567;BME280;59403;47.456;19.120;2023-09-07T02:24:24;100971.41;;;16.15;97.29
71567;BME280;59403;47.456;19.120;2023-09-07T02:26:51;100971.75;;;16.12;97.66
71567;BME280;59403;47.456;19.120;2023-09-07T02:29:18;100972.94;;;16.10;97.71
71567;BME280;59403;47.456;19.120;2023-09-07T02:31:46;100971.47;;;16.07;98.08
71567;BME280;59403;47.456;19.120;2023-09-07T02:34:13;100973.69;;;15.96;98.66
71567;BME280;59403;47.456;19.120;2023-09-07T02:36:40;100966.94;;;15.85;99.45
71567;BME280;59403;47.456;19.120;2023-09-07T02:39:07;100974.28;;;15.83;99.75
71567;BME280;59403;47.456;19.120;2023-09-07T02:41:34;100971.97;;;15.80;100.00
71567;BME280;59403;47.456;19.120;2023-09-07T02:44:01;100972.50;;;15.75;100.00
71567;BME280;59403;47.456;19.120;2023-09-07T02:46:28;100972.84;;;15.72;100.00
71567;BME280;59403;47.456;19.120;2023-09-07T02:48:57;100975.03;;;15.69;100.00
71567;BME280;59403;47.456;19.120;2023-09-07T02:51:23;100981.75;;;15.65;100.00
71567;BME280;59403;47.456;19.120;2023-09-07T02:53:50;100977.94;;;15.59;100.00
71567;BME280;59403;47.456;19.120;2023-09-07T02:56:17;100987.28;;;15.55;100.00
71567;BME280;59403;47.456;19.120;2023-09-07T02:58:44;100986.81;;;15.52;100.00
71567;BME280;59403;47.456;19.120;2023-09-07T03:01:11;100980.19;;;15.48;100.00
71567;BME280;59403;47.456;19.120;2023-09-07T03:03:39;100983.84;;;15.47;100.00
71567;BME280;59403;47.456;19.120;2023-09-07T03:06:10;100981.19;;;15.39;100.00
71567;BME280;59403;47.456;19.120;2023-09-07T03:08:37;100980.84;;;15.42;100.00
71567;BME280;59403;47.456;19.120;2023-09-07T03:11:04;100981.53;;;15.36;100.00
71567;BME280;59403;47.456;19.120;2023-09-07T03:13:31;100983.19;;;15.37;100.00
71567;BME280;59403;47.456;19.120;2023-09-07T03:15:58;100984.53;;;15.33;100.00
71567;BME280;59403;47.456;19.120;2023-09-07T03:18:25;100989.37;;;15.29;100.00
71567;BME280;59403;47.456;19.120;2023-09-07T03:20:54;100985.41;;;15.25;100.00
71567;BME280;59403;47.456;19.120;2023-09-07T03:23:23;100985.72;;;15.22;100.00
71567;BME280;59403;47.456;19.120;2023-09-07T03:25:50;100979.22;;;15.25;100.00
71567;BME280;59403;47.456;19.120;2023-09-07T03:28:17;100984.12;;;15.13;100.00
71567;BME280;59403;47.456;19.120;2023-09-07T03:30:43;100979.41;;;15.15;100.00
71567;BME280;59403;47.456;19.120;2023-09-07T03:33:10;100985.59;;;15.16;100.00
71567;BME280;59403;47.456;19.120;2023-09-07T03:35:37;100987.78;;;15.12;100.00
71567;BME280;59403;47.456;19.120;2023-09-07T03:38:04;100990.63;;;15.11;100.00
71567;BME280;59403;47.456;19.120;2023-09-07T03:40:32;100991.47;;;15.11;100.00
71567;BME280;59403;47.456;19.120;2023-09-07T03:42:59;100987.28;;;15.09;100.00
71567;BME280;59403;47.456;19.120;2023-09-07T03:45:26;100985.63;;;15.08;100.00
71567;BME280;59403;47.456;19.120;2023-09-07T03:47:52;100987.62;;;15.06;100.00
71567;BME280;59403;47.456;19.120;2023-09-07T03:50:19;100980.47;;;14.98;100.00
71567;BME280;59403;47.456;19.120;2023-09-07T03:52:47;100990.16;;;14.99;100.00
71567;BME280;59403;47.456;19.120;2023-09-07T03:55:14;100990.47;;;14.96;100.00
71567;BME280;59403;47.456;19.120;2023-09-07T03:57:42;100992.03;;;14.91;100.00
71567;BME280;59403;47.456;19.120;2023-09-07T04:00:10;100990.16;;;14.91;100.00
71567;BME280;59403;47.456;19.120;2023-09-07T04:02:38;100985.50;;;14.93;100.00
71567;BME280;59403;47.456;19.120;2023-09-07T04:05:06;100986.84;;;14.89;100.00
71567;BME280;59403;47.456;19.120;2023-09-07T04:07:34;100985.84;;;14.90;100.00
71567;BME280;59403;47.456;19.120;2023-09-07T04:10:01;100988.69;;;14.89;100.00
71567;BME280;59403;47.456;19.120;2023-09-07T04:12:28;100992.50;;;14.94;100.00
71567;BME280;59403;47.456;19.120;2023-09-07T04:14:56;100994.84;;;14.97;100.00
71567;BME280;59403;47.456;19.120;2023-09-07T04:17:23;101000.00;;;14.99;100.00
71567;BME280;59403;47.456;19.120;2023-09-07T04:19:50;101000.00;;;14.99;100.00
71567;BME280;59403;47.456;19.120;2023-09-07T04:22:17;100998.97;;;15.00;100.00
71567;BME280;59403;47.456;19.120;2023-09-07T04:24:47;101001.16;;;15.04;100.00
71567;BME280;59403;47.456;19.120;2023-09-07T04:27:14;101002.44;;;15.08;100.00
71567;BME280;59403;47.456;19.120;2023-09-07T04:29:40;100996.47;;;15.06;100.00
71567;BME280;59403;47.456;19.120;2023-09-07T04:32:08;101005.28;;;15.07;100.00
71567;BME280;59403;47.456;19.120;2023-09-07T04:34:35;101007.78;;;15.08;100.00
71567;BME280;59403;47.456;19.120;2023-09-07T04:37:05;101007.16;;;15.06;100.00
71567;BME280;59403;47.456;19.120;2023-09-07T04:39:31;101014.97;;;15.08;100.00
71567;BME280;59403;47.456;19.120;2023-09-07T04:41:58;101005.12;;;15.08;100.00
71567;BME280;59403;47.456;19.120;2023-09-07T04:44:26;101007.47;;;15.11;100.00
71567;BME280;59403;47.456;19.120;2023-09-07T04:46:54;101014.78;;;15.17;100.00
71567;BME280;59403;47.456;19.120;2023-09-07T04:49:23;101008.94;;;15.22;100.00
71567;BME280;59403;47.456;19.120;2023-09-07T04:51:52;101011.25;;;15.25;100.00
71567;BME280;59403;47.456;19.120;2023-09-07T04:54:19;101008.91;;;15.30;100.00
71567;BME280;59403;47.456;19.120;2023-09-07T04:56:46;101013.06;;;15.32;100.00
71567;BME280;59403;47.456;19.120;2023-09-07T04:59:13;101015.22;;;15.37;100.00
71567;BME280;59403;47.456;19.120;2023-09-07T05:01:40;101009.69;;;15.38;100.00
71567;BME280;59403;47.456;19.120;2023-09-07T05:04:07;101009.53;;;15.48;100.00
71567;BME280;59403;47.456;19.120;2023-09-07T05:06:35;101012.84;;;15.50;100.00
71567;BME280;59403;47.456;19.120;2023-09-07T05:09:03;101017.16;;;15.59;100.00
71567;BME280;59403;47.456;19.120;2023-09-07T05:11:30;101012.97;;;15.64;100.00
71567;BME280;59403;47.456;19.120;2023-09-07T05:14:00;101017.63;;;15.70;100.00
71567;BME280;59403;47.456;19.120;2023-09-07T05:16:26;101015.72;;;15.79;100.00
71567;BME280;59403;47.456;19.120;2023-09-07T05:18:54;101024.88;;;15.84;100.00
71567;BME280;59403;47.456;19.120;2023-09-07T05:21:20;101030.00;;;15.94;100.00
71567;BME280;59403;47.456;19.120;2023-09-07T05:23:49;101023.50;;;16.19;100.00
71567;BME280;59403;47.456;19.120;2023-09-07T05:26:20;101029.63;;;16.28;99.23
71567;BME280;59403;47.456;19.120;2023-09-07T05:28:47;101031.44;;;16.27;99.54
71567;BME280;59403;47.456;19.120;2023-09-07T05:31:14;101036.25;;;16.32;98.82
71567;BME280;59403;47.456;19.120;2023-09-07T05:33:41;101039.25;;;17.11;93.90
71567;BME280;59403;47.456;19.120;2023-09-07T05:36:08;101045.19;;;18.00;89.58
71567;BME280;59403;47.456;19.120;2023-09-07T05:38:35;101038.78;;;18.79;85.22
71567;BME280;59403;47.456;19.120;2023-09-07T05:41:05;101042.81;;;19.24;83.48
71567;BME280;59403;47.456;19.120;2023-09-07T05:43:32;101042.38;;;19.48;80.67
71567;BME280;59403;47.456;19.120;2023-09-07T05:45:59;101044.09;;;19.62;79.70
71567;BME280;59403;47.456;19.120;2023-09-07T05:48:28;101038.94;;;19.67;78.86
71567;BME280;59403;47.456;19.120;2023-09-07T05:50:54;101035.25;;;20.22;77.97
71567;BME280;59403;47.456;19.120;2023-09-07T05:53:21;101042.91;;;20.25;77.78
71567;BME280;59403;47.456;19.120;2023-09-07T05:55:50;101036.38;;;19.93;77.58
71567;BME280;59403;47.456;19.120;2023-09-07T05:58:18;101036.56;;;19.92;79.20
71567;BME280;59403;47.456;19.120;2023-09-07T06:00:45;101040.31;;;20.04;79.38
71567;BME280;59403;47.456;19.120;2023-09-07T06:03:12;101043.34;;;19.81;80.71
71567;BME280;59403;47.456;19.120;2023-09-07T06:05:39;101046.34;;;19.59;81.83
71567;BME280;59403;47.456;19.120;2023-09-07T06:08:06;101043.22;;;19.55;82.78
71567;BME280;59403;47.456;19.120;2023-09-07T06:10:34;101045.44;;;19.39;83.38
71567;BME280;59403;47.456;19.120;2023-09-07T06:13:01;101053.81;;;19.29;83.61
71567;BME280;59403;47.456;19.120;2023-09-07T06:15:34;101048.44;;;19.29;83.74
71567;BME280;59403;47.456;19.120;2023-09-07T06:18:01;101052.66;;;19.10;82.88
71567;BME280;59403;47.456;19.120;2023-09-07T06:20:28;101058.44;;;19.07;81.21
71567;BME280;59403;47.456;19.120;2023-09-07T06:22:55;101054.50;;;19.10;81.73
71567;BME280;59403;47.456;19.120;2023-09-07T06:25:22;101053.81;;;19.01;82.73
71567;BME280;59403;47.456;19.120;2023-09-07T06:27:49;101057.59;;;19.07;81.20
71567;BME280;59403;47.456;19.120;2023-09-07T06:30:16;101053.25;;;19.06;80.84
71567;BME280;59403;47.456;19.120;2023-09-07T06:32:44;101052.62;;;19.04;81.70
71567;BME280;59403;47.456;19.120;2023-09-07T06:35:13;101052.81;;;19.02;82.29
71567;BME280;59403;47.456;19.120;2023-09-07T06:37:39;101058.75;;;18.98;82.38
71567;BME280;59403;47.456;19.120;2023-09-07T06:40:09;101057.16;;;19.03;82.11
71567;BME280;59403;47.456;19.120;2023-09-07T06:42:36;101049.75;;;19.40;79.41
71567;BME280;59403;47.456;19.120;2023-09-07T06:45:04;101057.03;;;19.46;78.41
71567;BME280;59403;47.456;19.120;2023-09-07T06:47:30;101052.09;;;19.49;78.04
71567;BME280;59403;47.456;19.120;2023-09-07T06:49:59;101055.69;;;19.63;78.38
71567;BME280;59403;47.456;19.120;2023-09-07T06:52:26;101059.66;;;19.73;77.16
71567;BME280;59403;47.456;19.120;2023-09-07T06:54:53;101060.94;;;19.84;76.37
71567;BME280;59403;47.456;19.120;2023-09-07T06:57:20;101071.31;;;19.87;76.42
71567;BME280;59403;47.456;19.120;2023-09-07T06:59:47;101070.69;;;19.91;75.62
71567;BME280;59403;47.456;19.120;2023-09-07T07:02:14;101076.12;;;20.04;76.34
71567;BME280;59403;47.456;19.120;2023-09-07T07:04:41;101074.88;;;20.00;76.68
71567;BME280;59403;47.456;19.120;2023-09-07T07:07:10;101072.28;;;20.26;74.97
71567;BME280;59403;47.456;19.120;2023-09-07T07:09:37;101076.03;;;20.25;75.02
71567;BME280;59403;47.456;19.120;2023-09-07T07:12:05;101068.59;;;20.34;75.21
71567;BME280;59403;47.456;19.120;2023-09-07T07:14:31;101072.75;;;20.50;75.18
71567;BME280;59403;47.456;19.120;2023-09-07T07:16:58;101076.91;;;20.65;73.25
71567;BME280;59403;47.456;19.120;2023-09-07T07:19:27;101071.94;;;20.75;71.91
71567;BME280;59403;47.456;19.120;2023-09-07T07:21:54;101074.44;;;21.09;71.25
71567;BME280;59403;47.456;19.120;2023-09-07T07:24:22;101070.53;;;21.05;71.24
71567;BME280;59403;47.456;19.120;2023-09-07T07:26:49;101069.06;;;21.03;70.88
71567;BME280;59403;47.456;19.120;2023-09-07T07:29:16;101070.53;;;21.05;70.09
71567;BME280;59403;47.456;19.120;2023-09-07T07:31:43;101075.47;;;21.28;70.62
71567;BME280;59403;47.456;19.120;2023-09-07T07:34:10;101071.06;;;21.53;69.94
71567;BME280;59403;47.456;19.120;2023-09-07T07:36:36;101067.53;;;21.59;69.23
71567;BME280;59403;47.456;19.120;2023-09-07T07:39:04;101075.34;;;21.74;67.78
71567;BME280;59403;47.456;19.120;2023-09-07T07:41:34;101076.19;;;21.81;67.61
71567;BME280;59403;47.456;19.120;2023-09-07T07:44:01;101077.41;;;21.85;67.66
71567;BME280;59403;47.456;19.120;2023-09-07T07:46:28;101076.41;;;21.86;66.49
71567;BME280;59403;47.456;19.120;2023-09-07T07:48:55;101076.09;;;22.00;65.92
71567;BME280;59403;47.456;19.120;2023-09-07T07:51:22;101067.56;;;22.10;65.50
71567;BME280;59403;47.456;19.120;2023-09-07T07:53:48;101069.38;;;22.16;66.25
71567;BME280;59403;47.456;19.120;2023-09-07T07:56:15;101074.56;;;22.24;66.45
71567;BME280;59403;47.456;19.120;2023-09-07T07:58:44;101073.06;;;22.28;65.42
71567;BME280;59403;47.456;19.120;2023-09-07T08:01:15;101069.69;;;22.39;65.60
71567;BME280;59403;47.456;19.120;2023-09-07T08:03:42;101073.38;;;22.44;65.34
71567;BME280;59403;47.456;19.120;2023-09-07T08:06:09;101076.84;;;22.58;66.02
71567;BME280;59403;47.456;19.120;2023-09-07T08:08:36;101070.38;;;22.66;66.04
71567;BME280;59403;47.456;19.120;2023-09-07T08:11:03;101082.13;;;22.71;61.75
71567;BME280;59403;47.456;19.120;2023-09-07T08:13:31;101080.31;;;22.65;62.69
71567;BME280;59403;47.456;19.120;2023-09-07T08:16:00;101075.91;;;22.95;61.88
71567;BME280;59403;47.456;19.120;2023-09-07T08:18:27;101081.44;;;22.82;58.98
71567;BME280;59403;47.456;19.120;2023-09-07T08:20:55;101075.75;;;22.90;61.65
71567;BME280;59403;47.456;19.120;2023-09-07T08:23:22;101072.13;;;23.03;61.37
71567;BME280;59403;47.456;19.120;2023-09-07T08:25:50;101067.94;;;23.07;61.78
71567;BME280;59403;47.456;19.120;2023-09-07T08:28:18;101068.31;;;23.10;62.29
71567;BME280;59403;47.456;19.120;2023-09-07T08:30:48;101061.03;;;23.11;62.64
71567;BME280;59403;47.456;19.120;2023-09-07T08:33:16;101073.72;;;23.35;62.27
71567;BME280;59403;47.456;19.120;2023-09-07T08:35:43;101061.63;;;23.55;61.13
71567;BME280;59403;47.456;19.120;2023-09-07T08:38:10;101067.31;;;23.47;59.36
71567;BME280;59403;47.456;19.120;2023-09-07T08:40:38;101074.00;;;23.63;58.23
71567;BME280;59403;47.456;19.120;2023-09-07T08:43:09;101063.50;;;23.55;58.96
71567;BME280;59403;47.456;19.120;2023-09-07T08:45:41;101059.84;;;23.68;59.05
71567;BME280;59403;47.456;19.120;2023-09-07T08:48:16;101054.19;;;23.51;58.47
71567;BME280;59403;47.456;19.120;2023-09-07T08:50:45;101056.06;;;23.69;57.38
71567;BME280;59403;47.456;19.120;2023-09-07T08:53:17;101054.31;;;23.92;56.28
71567;BME280;59403;47.456;19.120;2023-09-07T08:55:44;101050.09;;;23.96;55.65
71567;BME280;59403;47.456;19.120;2023-09-07T08:58:11;101051.59;;;24.10;55.67
71567;BME280;59403;47.456;19.120;2023-09-07T09:00:39;101057.34;;;24.32;54.73
71567;BME280;59403;47.456;19.120;2023-09-07T09:03:08;101051.16;;;24.13;54.59
71567;BME280;59403;47.456;19.120;2023-09-07T09:05:38;101044.66;;;24.44;53.26
71567;BME280;59403;47.456;19.120;2023-09-07T09:08:06;101047.34;;;24.32;54.63
71567;BME280;59403;47.456;19.120;2023-09-07T09:10:33;101046.19;;;24.40;53.68
71567;BME280;59403;47.456;19.120;2023-09-07T09:12:59;101045.66;;;24.61;54.04
71567;BME280;59403;47.456;19.120;2023-09-07T09:15:26;101043.66;;;24.56;52.96
71567;BME280;59403;47.456;19.120;2023-09-07T09:17:53;101039.75;;;24.64;52.78
71567;BME280;59403;47.456;19.120;2023-09-07T09:20:21;101038.62;;;24.83;53.14
71567;BME280;59403;47.456;19.120;2023-09-07T09:22:52;101042.06;;;25.02;51.79
71567;BME280;59403;47.456;19.120;2023-09-07T09:25:19;101033.00;;;24.96;52.72
71567;BME280;59403;47.456;19.120;2023-09-07T09:27:46;101036.19;;;25.05;50.03
71567;BME280;59403;47.456;19.120;2023-09-07T09:30:13;101037.59;;;24.96;50.41
71567;BME280;59403;47.456;19.120;2023-09-07T09:32:42;101031.00;;;25.03;50.83
71567;BME280;59403;47.456;19.120;2023-09-07T09:35:09;101030.03;;;25.32;50.31
71567;BME280;59403;47.456;19.120;2023-09-07T09:37:46;101030.97;;;25.15;49.44
71567;BME280;59403;47.456;19.120;2023-09-07T09:40:15;101034.75;;;25.37;49.65
71567;BME280;59403;47.456;19.120;2023-09-07T09:42:43;101033.28;;;25.69;49.87
71567;BME280;59403;47.456;19.120;2023-09-07T09:45:11;101036.75;;;25.30;47.62
71567;BME280;59403;47.456;19.120;2023-09-07T09:47:39;101030.03;;;25.44;47.97
71567;BME280;59403;47.456;19.120;2023-09-07T09:50:07;101026.31;;;25.73;47.84
71567;BME280;59403;47.456;19.120;2023-09-07T09:52:35;101029.59;;;25.87;48.25
71567;BME280;59403;47.456;19.120;2023-09-07T09:55:04;101030.47;;;25.64;46.80
71567;BME280;59403;47.456;19.120;2023-09-07T09:57:35;101021.59;;;25.68;47.15
71567;BME280;59403;47.456;19.120;2023-09-07T10:00:03;101019.09;;;25.78;46.65
71567;BME280;59403;47.456;19.120;2023-09-07T10:02:46;101026.63;;;25.88;46.98
71567;BME280;59403;47.456;19.120;2023-09-07T10:05:15;101014.94;;;25.88;46.61
71567;BME280;59403;47.456;19.120;2023-09-07T10:07:43;101023.59;;;26.13;46.26
71567;BME280;59403;47.456;19.120;2023-09-07T10:10:12;101020.00;;;25.96;45.76
71567;BME280;59403;47.456;19.120;2023-09-07T10:12:42;101022.44;;;26.09;44.88
71567;BME280;59403;47.456;19.120;2023-09-07T10:15:20;101017.06;;;26.25;45.68
71567;BME280;59403;47.456;19.120;2023-09-07T10:17:47;101013.81;;;26.00;45.09
71567;BME280;59403;47.456;19.120;2023-09-07T10:20:16;101017.13;;;26.02;44.48
71567;BME280;59403;47.456;19.120;2023-09-07T10:22:44;101010.28;;;26.28;45.39
71567;BME280;59403;47.456;19.120;2023-09-07T10:25:21;101013.13;;;26.49;45.58
71567;BME280;59403;47.456;19.120;2023-09-07T10:27:53;101013.41;;;26.20;44.48
71567;BME280;59403;47.456;19.120;2023-09-07T10:30:20;101010.66;;;26.48;44.12
71567;BME280;59403;47.456;19.120;2023-09-07T10:32:49;101013.44;;;26.36;44.38
71567;BME280;59403;47.456;19.120;2023-09-07T10:35:18;101012.50;;;26.31;43.47
71567;BME280;59403;47.456;19.120;2023-09-07T10:37:47;101014.84;;;26.39;44.60
71567;BME280;59403;47.456;19.120;2023-09-07T10:40:19;101011.22;;;26.66;44.34
71567;BME280;59403;47.456;19.120;2023-09-07T10:42:46;101004.09;;;26.77;44.30
71567;BME280;59403;47.456;19.120;2023-09-07T10:45:15;101002.09;;;26.72;44.56
71567;BME280;59403;47.456;19.120;2023-09-07T10:47:43;100996.03;;;26.82;44.06
71567;BME280;59403;47.456;19.120;2023-09-07T10:50:11;100995.28;;;26.70;43.47
71567;BME280;59403;47.456;19.120;2023-09-07T10:52:39;100997.84;;;26.93;42.73
71567;BME280;59403;47.456;19.120;2023-09-07T10:55:07;100990.41;;;26.88;43.11
71567;BME280;59403;47.456;19.120;2023-09-07T10:57:41;100988.12;;;26.80;43.01
71567;BME280;59403;47.456;19.120;2023-09-07T11:00:10;100990.53;;;26.99;41.24
71567;BME280;59403;47.456;19.120;2023-09-07T11:02:38;100989.75;;;26.98;42.14
71567;BME280;59403;47.456;19.120;2023-09-07T11:05:06;100983.94;;;27.11;41.62
71567;BME280;59403;47.456;19.120;2023-09-07T11:07:33;100978.88;;;26.98;43.30
71567;BME280;59403;47.456;19.120;2023-09-07T11:10:01;100975.03;;;27.16;42.72
71567;BME280;59403;47.456;19.120;2023-09-07T11:12:30;100979.50;;;27.05;40.96
71567;BME280;59403;47.456;19.120;2023-09-07T11:15:03;100974.84;;;27.22;41.26
71567;BME280;59403;47.456;19.120;2023-09-07T11:17:31;100971.38;;;27.27;41.49
71567;BME280;59403;47.456;19.120;2023-09-07T11:20:03;100968.31;;;27.23;40.64
71567;BME280;59403;47.456;19.120;2023-09-07T11:22:32;100966.59;;;27.34;43.15
71567;BME280;59403;47.456;19.120;2023-09-07T11:24:59;100968.06;;;27.41;41.44
71567;BME280;59403;47.456;19.120;2023-09-07T11:27:29;100965.91;;;27.43;41.89
71567;BME280;59403;47.456;19.120;2023-09-07T11:29:56;100964.34;;;27.52;41.80
71567;BME280;59403;47.456;19.120;2023-09-07T11:32:23;100960.91;;;27.57;40.89
71567;BME280;59403;47.456;19.120;2023-09-07T11:34:51;100959.19;;;27.51;41.14
71567;BME280;59403;47.456;19.120;2023-09-07T11:37:24;100955.44;;;27.57;41.20
71567;BME280;59403;47.456;19.120;2023-09-07T11:39:51;100951.00;;;27.51;40.44
71567;BME280;59403;47.456;19.120;2023-09-07T11:42:18;100951.06;;;27.56;40.58
71567;BME280;59403;47.456;19.120;2023-09-07T11:44:45;100951.94;;;27.61;40.18
71567;BME280;59403;47.456;19.120;2023-09-07T11:47:12;100951.06;;;27.77;40.64
71567;BME280;59403;47.456;19.120;2023-09-07T11:49:40;100946.97;;;28.02;40.61
71567;BME280;59403;47.456;19.120;2023-09-07T11:52:06;100939.09;;;28.05;40.65
71567;BME280;59403;47.456;19.120;2023-09-07T11:54:35;100938.78;;;28.02;40.53
71567;BME280;59403;47.456;19.120;2023-09-07T11:57:02;100937.22;;;28.06;40.81
71567;BME280;59403;47.456;19.120;2023-09-07T11:59:29;100941.91;;;27.88;40.42
71567;BME280;59403;47.456;19.120;2023-09-07T12:01:58;100947.81;;;28.02;39.46
71567;BME280;59403;47.456;19.120;2023-09-07T12:04:24;100945.66;;;28.04;39.42
71567;BME280;59403;47.456;19.120;2023-09-07T12:06:51;100928.69;;;27.97;37.90
71567;BME280;59403;47.456;19.120;2023-09-07T12:09:18;100937.44;;;27.99;38.34
71567;BME280;59403;47.456;19.120;2023-09-07T12:11:48;100938.00;;;27.79;38.43
71567;BME280;59403;47.456;19.120;2023-09-07T12:14:14;100945.59;;;27.77;36.65
71567;BME280;59403;47.456;19.120;2023-09-07T12:16:41;100940.72;;;27.79;37.85
71567;BME280;59403;47.456;19.120;2023-09-07T12:19:08;100933.97;;;27.87;37.71
71567;BME280;59403;47.456;19.120;2023-09-07T12:21:35;100930.47;;;27.86;36.95
71567;BME280;59403;47.456;19.120;2023-09-07T12:24:02;100925.66;;;27.72;37.82
71567;BME280;59403;47.456;19.120;2023-09-07T12:26:29;100923.03;;;28.04;37.93
71567;BME280;59403;47.456;19.120;2023-09-07T12:28:57;100928.78;;;28.07;37.77
71567;BME280;59403;47.456;19.120;2023-09-07T12:31:25;100926.28;;;28.01;38.10
71567;BME280;59403;47.456;19.120;2023-09-07T12:33:52;100924.16;;;28.08;36.64
71567;BME280;59403;47.456;19.120;2023-09-07T12:36:19;100924.19;;;28.13;37.88
71567;BME280;59403;47.456;19.120;2023-09-07T12:38:46;100925.00;;;28.13;37.97
71567;BME280;59403;47.456;19.120;2023-09-07T12:41:13;100925.47;;;28.05;37.89
71567;BME280;59403;47.456;19.120;2023-09-07T12:43:41;100918.22;;;28.16;37.72